Thunderstorms From: 26-05-2018 21:24 Until: 27-05-2018 15:00 warning for: Thunderstorms Level: Yellow info button

Although rather usual in this region, locally or potentially dangerous phenomena are expected. (such as local winds, summer thunderstorms, rising streams or high waves) Be aware and pay attention to the latest weather updates, especially if you carry out activities exposed to weather or close to a stream or shoreline. 


Meteo18 Weather Cam more information Meteo18 Weather Cam


warning for Thunderstorms more information blitzortung!


Rain radar more information rain snow radar


Visit our other weather sites:

Template documentation
and downloads

And another site



Weather Underground History page Text

Daily Summary for December 7, 2017 Units:  English    Metric   Both
« Previous Day
Next Day »
Daily Weekly Monthly Yearly Custom
  High: Low: Average:
Temperature: TemperatureC °F -2.2 °F 2 °F
Dew Point: DewpointC °F -2.6 °F 1.3 °F
Humidity: Humidity % 86 % 94 %
Wind Speed: WindSpeedKMH mph 0.0 mph 9.5 mph
Wind Gust: WindSpeedGustKMH mph - -
Wind:- - SSW
Pressure: PressurehPa in 1016.5 in -
Precipitation: 7.9 in    
Historical Graphs
 
 
Tabular Data for December 7, 2017
Time Temperature Dew Point Pressure Wind Wind Speed Wind Gust Humidity Rainfall Rate (Hourly)
TemperatureC °F DewpointC °F PressurehPa in Calm     Humidity % HourlyPrecipMM in
00:02 0.9 °F 0.3 °F 1029.7 in SSE 1.6 mph 8.0 mph 96 % 0.0 in
00:07 0.9 °F 0.2 °F 1029.7 in SSE 1.6 mph 8.0 mph 95 % 0.0 in
00:12 0.9 °F 0.2 °F 1029.7 in SSE 1.6 mph 9.7 mph 95 % 0.0 in
00:17 0.9 °F 0.3 °F 1029.7 in Calm   9.7 mph 96 % 0.0 in
00:22 0.8 °F 0.2 °F 1029.7 in SE 1.6 mph 11.3 mph 96 % 0.0 in
00:27 0.8 °F 0.2 °F 1029.7 in Calm   11.3 mph 96 % 0.0 in
00:32 0.8 °F 0.2 °F 1029.3 in SSE 1.6 mph 6.4 mph 96 % 0.0 in
00:42 0.8 °F 0.2 °F 1029.3 in SSE 3.2 mph 6.4 mph 96 % 0.0 in
00:47 0.8 °F 0.2 °F 1029.3 in Calm   8.0 mph 96 % 0.0 in
00:52 0.8 °F 0.2 °F 1029.3 in South 6.4 mph 8.0 mph 96 % 0.0 in
00:57 0.8 °F 0.2 °F 1029.3 in SSW 1.6 mph 8.0 mph 96 % 0.0 in
01:02 0.7 °F 0.1 °F 1029.3 in SSW 3.2 mph 6.4 mph 96 % 0.0 in
01:07 0.7 °F 0.1 °F 1029.3 in SSW 3.2 mph 6.4 mph 96 % 0.0 in
01:12 0.6 °F 0.0 °F 1029.3 in SSE 4.8 mph 6.4 mph 96 % 0.0 in
01:17 0.5 °F -0.1 °F 1029.3 in SSW 3.2 mph 6.4 mph 96 % 0.0 in
01:22 0.5 °F -0.1 °F 1029.3 in South 3.2 mph 6.4 mph 96 % 0.0 in
01:27 0.4 °F -0.2 °F 1029.3 in South 3.2 mph 6.4 mph 96 % 0.0 in
01:37 0.4 °F -0.2 °F 1029.0 in SSW 4.8 mph 9.7 mph 96 % 0.0 in
01:42 0.4 °F -0.2 °F 1029.0 in SSE 1.6 mph 8.0 mph 96 % 0.0 in
01:47 0.3 °F -0.3 °F 1029.0 in SSE 8.0 mph 8.0 mph 96 % 0.0 in
01:52 0.3 °F -0.3 °F 1028.7 in South 6.4 mph 9.7 mph 96 % 0.0 in
02:02 0.2 °F -0.4 °F 1028.7 in South 6.4 mph 9.7 mph 96 % 0.0 in
02:12 0.0 °F -0.6 °F 1028.7 in SSE 1.6 mph 9.7 mph 96 % 0.0 in
02:17 0.0 °F -0.6 °F 1028.7 in SE 3.2 mph 9.7 mph 96 % 0.0 in
02:22 -0.1 °F -0.7 °F 1028.7 in SSE 4.8 mph 9.7 mph 96 % 0.0 in
02:27 -0.1 °F -0.7 °F 1028.7 in SSE 3.2 mph 8.0 mph 96 % 0.0 in
02:32 -0.1 °F -0.7 °F 1028.7 in SSE 1.6 mph 6.4 mph 96 % 0.0 in
02:37 -0.1 °F -0.7 °F 1028.7 in South 1.6 mph 6.4 mph 96 % 0.0 in
02:42 -0.1 °F -0.7 °F 1028.7 in Calm   6.4 mph 96 % 0.0 in
02:47 -0.1 °F -0.7 °F 1028.7 in SSE 1.6 mph 6.4 mph 96 % 0.0 in
02:52 -0.2 °F -0.8 °F 1028.7 in SSE 3.2 mph 6.4 mph 96 % 0.0 in
02:57 -0.3 °F -0.9 °F 1028.7 in SSW 3.2 mph 8.0 mph 96 % 0.0 in
03:02 -0.3 °F -0.9 °F 1028.7 in South 1.6 mph 8.0 mph 96 % 0.0 in
03:07 -0.3 °F -0.9 °F 1028.7 in Calm   8.0 mph 96 % 0.0 in
03:12 -0.3 °F -0.9 °F 1028.7 in SSE 1.6 mph 6.4 mph 96 % 0.0 in
03:17 -0.4 °F -1.0 °F 1028.3 in Calm   4.8 mph 96 % 0.0 in
03:22 -0.4 °F -1.0 °F 1028.3 in SSW 4.8 mph 4.8 mph 96 % 0.0 in
03:27 -0.6 °F -1.2 °F 1028.3 in SW 3.2 mph 8.0 mph 96 % 0.0 in
03:32 -0.7 °F -1.3 °F 1028.3 in SSW 1.6 mph 8.0 mph 96 % 0.0 in
03:42 -0.9 °F -1.5 °F 1028.0 in SSE 1.6 mph 8.0 mph 96 % 0.0 in
03:47 -1.0 °F -1.6 °F 1028.0 in SSE 1.6 mph 8.0 mph 96 % 0.0 in
03:57 -1.1 °F -1.5 °F 1028.0 in Calm   8.0 mph 97 % 0.0 in
04:02 -1.1 °F -1.5 °F 1028.0 in Calm   8.0 mph 97 % 0.0 in
04:07 -1.1 °F -1.5 °F 1028.0 in SSE 3.2 mph 6.4 mph 97 % 0.0 in
04:17 -1.0 °F -1.4 °F 1027.7 in SSW 3.2 mph 3.2 mph 97 % 0.0 in
04:22 -1.0 °F -1.4 °F 1027.7 in SSW 3.2 mph 4.8 mph 97 % 0.0 in
04:27 -1.1 °F -1.5 °F 1027.7 in SE 4.8 mph 4.8 mph 97 % 0.0 in
04:32 -1.2 °F -1.6 °F 1027.7 in Calm   6.4 mph 97 % 0.0 in
04:37 -1.2 °F -1.6 °F 1027.7 in SSE 1.6 mph 9.7 mph 97 % 0.0 in
04:47 -1.2 °F -1.6 °F 1027.7 in Calm   9.7 mph 97 % 0.0 in
04:52 -1.2 °F -1.6 °F 1027.7 in SW 4.8 mph 6.4 mph 97 % 0.0 in
05:02 -1.2 °F -1.6 °F 1027.7 in SSW 4.8 mph 8.0 mph 97 % 0.0 in
05:07 -1.2 °F -1.6 °F 1027.7 in SSW 3.2 mph 8.0 mph 97 % 0.0 in
05:12 -1.2 °F -1.6 °F 1027.7 in SW 4.8 mph 8.0 mph 97 % 0.0 in
05:17 -1.2 °F -1.6 °F 1027.7 in South 8.0 mph 14.5 mph 97 % 0.0 in
05:22 -1.2 °F -1.6 °F 1027.7 in SW 8.0 mph 14.5 mph 97 % 0.0 in
05:32 -1.3 °F -1.7 °F 1027.3 in SSW 6.4 mph 11.3 mph 97 % 0.0 in
05:37 -1.4 °F -1.8 °F 1027.3 in SSE 9.7 mph 16.1 mph 97 % 0.0 in
05:42 -1.4 °F -1.8 °F 1027.3 in SW 9.7 mph 16.1 mph 97 % 0.0 in
05:47 -1.6 °F -2.0 °F 1027.3 in SSW 4.8 mph 17.7 mph 97 % 0.0 in
05:52 -1.6 °F -2.0 °F 1027.3 in SSW 6.4 mph 17.7 mph 97 % 0.0 in
05:57 -1.6 °F -2.0 °F 1027.3 in SSW 3.2 mph 17.7 mph 97 % 0.0 in
06:02 -1.7 °F -2.1 °F 1027.3 in SW 6.4 mph 16.1 mph 97 % 0.0 in
06:07 -1.8 °F -2.2 °F 1027.3 in SW 12.9 mph 19.3 mph 97 % 0.0 in
06:12 -1.9 °F -2.3 °F 1027.3 in SW 8.0 mph 19.3 mph 97 % 0.0 in
06:17 -1.9 °F -2.3 °F 1027.3 in SW 14.5 mph 19.3 mph 97 % 0.0 in
06:22 -1.9 °F -2.3 °F 1027.3 in SW 14.5 mph 19.3 mph 97 % 0.0 in
06:32 -1.9 °F -2.3 °F 1027.3 in SSW 17.7 mph 19.3 mph 97 % 0.0 in
06:37 -1.9 °F -2.3 °F 1027.3 in SSW 11.3 mph 17.7 mph 97 % 0.0 in
06:42 -2.0 °F -2.4 °F 1027.0 in SW 11.3 mph 20.9 mph 97 % 0.0 in
06:47 -2.1 °F -2.5 °F 1027.0 in SW 6.4 mph 20.9 mph 97 % 0.0 in
06:52 -2.0 °F -2.4 °F 1027.0 in WSW 9.7 mph 20.9 mph 97 % 0.0 in
07:02 -1.9 °F -2.3 °F 1027.0 in SSW 6.4 mph 14.5 mph 97 % 0.0 in
07:07 -1.9 °F -2.3 °F 1027.0 in SW 16.1 mph 16.1 mph 97 % 0.0 in
07:12 -2.1 °F -2.5 °F 1027.0 in SW 9.7 mph 17.7 mph 97 % 0.0 in
07:17 -2.1 °F -2.5 °F 1027.0 in SW 12.9 mph 17.7 mph 97 % 0.0 in
07:22 -2.1 °F -2.5 °F 1027.3 in WSW 4.8 mph 17.7 mph 97 % 0.0 in
07:27 -2.1 °F -2.5 °F 1027.0 in SSW 9.7 mph 14.5 mph 97 % 0.0 in
07:32 -2.1 °F -2.5 °F 1027.0 in SW 9.7 mph 14.5 mph 97 % 0.0 in
07:42 -2.1 °F -2.5 °F 1027.0 in SW 6.4 mph 14.5 mph 97 % 0.0 in
07:47 -2.0 °F -2.4 °F 1027.0 in SW 4.8 mph 12.9 mph 97 % 0.0 in
07:52 -1.9 °F -2.3 °F 1027.0 in SSW 8.0 mph 11.3 mph 97 % 0.0 in
07:57 -1.9 °F -2.3 °F 1027.0 in SSW 3.2 mph 14.5 mph 97 % 0.0 in
08:02 -1.9 °F -2.3 °F 1027.0 in SSE 6.4 mph 14.5 mph 97 % 0.0 in
08:12 -1.9 °F -2.3 °F 1027.0 in SSW 6.4 mph 14.5 mph 97 % 0.0 in
08:22 -2.0 °F -2.4 °F 1027.0 in SW 12.9 mph 16.1 mph 97 % 0.0 in
08:27 -2.0 °F -2.4 °F 1027.0 in WSW 6.4 mph 17.7 mph 97 % 0.0 in
08:32 -2.1 °F -2.5 °F 1027.0 in South 8.0 mph 17.7 mph 97 % 0.0 in
08:42 -2.2 °F -2.6 °F 1027.0 in South 4.8 mph 16.1 mph 97 % 0.0 in
08:52 -2.2 °F -2.6 °F 1027.0 in SSW 1.6 mph 12.9 mph 97 % 0.0 in
08:57 -2.2 °F -2.6 °F 1027.0 in SSW 6.4 mph 8.0 mph 97 % 0.0 in
09:02 -2.1 °F -2.5 °F 1027.0 in SSW 8.0 mph 14.5 mph 97 % 0.0 in
09:07 -2.0 °F -2.4 °F 1027.0 in SSW 6.4 mph 14.5 mph 97 % 0.0 in
09:12 -1.9 °F -2.3 °F 1026.6 in SSW 6.4 mph 14.5 mph 97 % 0.0 in
09:17 -2.0 °F -2.4 °F 1027.0 in SSW 6.4 mph 14.5 mph 97 % 0.0 in
09:22 -2.0 °F -2.4 °F 1026.6 in SW 8.0 mph 12.9 mph 97 % 0.0 in
09:27 -1.9 °F -2.3 °F 1027.0 in SSW 9.7 mph 12.9 mph 97 % 0.0 in
09:32 -1.9 °F -2.3 °F 1026.6 in SW 8.0 mph 12.9 mph 97 % 0.0 in
09:42 -1.9 °F -2.3 °F 1026.6 in South 8.0 mph 16.1 mph 97 % 0.0 in
09:47 -1.9 °F -2.3 °F 1026.6 in SSW 6.4 mph 16.1 mph 97 % 0.0 in
09:52 -1.8 °F -2.2 °F 1026.6 in SW 6.4 mph 12.9 mph 97 % 0.0 in
09:57 -1.7 °F -2.1 °F 1026.6 in SSW 9.7 mph 12.9 mph 97 % 0.0 in
10:02 -1.7 °F -2.1 °F 1026.6 in SSW 9.7 mph 14.5 mph 97 % 0.0 in
10:12 -1.6 °F -2.0 °F 1026.6 in SW 8.0 mph 14.5 mph 97 % 0.0 in
10:17 -1.7 °F -2.1 °F 1026.6 in SSW 3.2 mph 12.9 mph 97 % 0.0 in
10:22 -1.5 °F -1.9 °F 1026.6 in SW 9.7 mph 14.5 mph 97 % 0.0 in
10:27 -1.5 °F -1.9 °F 1026.6 in South 9.7 mph 14.5 mph 97 % 0.0 in
10:32 -1.5 °F -1.9 °F 1026.6 in SSW 8.0 mph 14.5 mph 97 % 0.0 in
10:37 -1.4 °F -1.8 °F 1026.6 in SSW 4.8 mph 16.1 mph 97 % 0.0 in
10:42 -1.4 °F -1.8 °F 1026.6 in SSE 1.6 mph 16.1 mph 97 % 0.0 in
10:47 -1.4 °F -1.8 °F 1026.6 in SSW 12.9 mph 16.1 mph 97 % 0.0 in
10:52 -1.3 °F -1.7 °F 1026.3 in SSW 6.4 mph 14.5 mph 97 % 0.0 in
10:57 -1.2 °F -1.6 °F 1026.3 in SSW 8.0 mph 14.5 mph 97 % 0.0 in
11:02 -1.1 °F -1.5 °F 1026.3 in SW 12.9 mph 14.5 mph 97 % 0.0 in
11:12 -0.7 °F -1.1 °F 1026.0 in SSW 6.4 mph 14.5 mph 97 % 0.0 in
11:17 -0.5 °F -0.9 °F 1026.0 in South 3.2 mph 14.5 mph 97 % 0.0 in
11:22 -0.2 °F -0.5 °F 1026.0 in South 1.6 mph 14.5 mph 98 % 0.0 in
11:32 0.1 °F -0.2 °F 1026.0 in South 1.6 mph 14.5 mph 98 % 0.0 in
11:42 0.4 °F 0.1 °F 1025.6 in SSW 9.7 mph 14.5 mph 98 % 0.0 in
11:47 0.5 °F 0.2 °F 1025.3 in South 4.8 mph 14.5 mph 98 % 0.0 in
11:52 0.6 °F 0.3 °F 1025.3 in SSW 4.8 mph 14.5 mph 98 % 0.0 in
12:02 0.9 °F 0.6 °F 1024.9 in SSW 3.2 mph 14.5 mph 98 % 0.0 in
12:07 1.2 °F 0.9 °F 1024.9 in SSW 9.7 mph 16.1 mph 98 % 0.0 in
12:12 1.4 °F 1.1 °F 1024.9 in SW 12.9 mph 16.1 mph 98 % 0.0 in
12:17 1.7 °F 1.4 °F 1024.9 in SSW 8.0 mph 16.1 mph 98 % 0.0 in
12:22 1.9 °F 1.6 °F 1024.9 in SW 12.9 mph 17.7 mph 98 % 0.0 in
12:27 2.1 °F 1.8 °F 1024.9 in SW 9.7 mph 20.9 mph 98 % 0.0 in
12:37 2.4 °F 2.1 °F 1024.6 in SW 17.7 mph 20.9 mph 98 % 0.0 in
12:42 2.6 °F 2.3 °F 1024.6 in SSW 19.3 mph 24.1 mph 98 % 0.0 in
12:47 2.8 °F 2.5 °F 1024.3 in SSW 16.1 mph 25.7 mph 98 % 0.0 in
12:52 2.9 °F 2.6 °F 1024.3 in SSW 12.9 mph 25.7 mph 98 % 0.0 in
12:57 3.1 °F 2.8 °F 1024.3 in SSW 17.7 mph 22.5 mph 98 % 0.0 in
13:02 3.3 °F 3.0 °F 1024.3 in WSW 16.1 mph 22.5 mph 98 % 0.0 in
13:07 3.6 °F 3.3 °F 1023.9 in SSW 9.7 mph 20.9 mph 98 % 0.0 in
13:12 3.9 °F 3.5 °F 1023.9 in SSW 9.7 mph 24.1 mph 97 % 0.0 in
13:17 4.2 °F 3.8 °F 1023.6 in SW 16.1 mph 24.1 mph 97 % 0.0 in
13:22 4.3 °F 3.6 °F 1023.6 in SSW 14.5 mph 24.1 mph 95 % 0.0 in
13:27 4.4 °F 3.5 °F 1023.6 in SSW 14.5 mph 22.5 mph 94 % 0.0 in
13:32 4.5 °F 3.5 °F 1023.2 in SSW 14.5 mph 29.0 mph 93 % 0.0 in
13:37 4.6 °F 3.4 °F 1023.2 in SW 14.5 mph 29.0 mph 92 % 0.0 in
13:42 4.7 °F 3.5 °F 1023.2 in SSW 9.7 mph 25.7 mph 92 % 0.0 in
13:52 4.9 °F 3.7 °F 1022.9 in South 4.8 mph 24.1 mph 92 % 0.0 in
13:57 5.1 °F 3.9 °F 1022.9 in SSW 9.7 mph 19.3 mph 92 % 0.0 in
14:07 5.3 °F 4.0 °F 1022.9 in South 8.0 mph 20.9 mph 91 % 0.0 in
14:17 5.5 °F 4.0 °F 1022.6 in SSW 12.9 mph 22.5 mph 90 % 0.0 in
14:22 5.5 °F 4.0 °F 1022.6 in SSW 14.5 mph 22.5 mph 90 % 0.0 in
14:32 5.7 °F 4.0 °F 1022.2 in SW 19.3 mph 22.5 mph 89 % 0.0 in
14:37 5.8 °F 4.1 °F 1022.2 in SW 22.5 mph 22.5 mph 89 % 0.0 in
14:42 5.8 °F 4.1 °F 1021.9 in SSW 11.3 mph 27.4 mph 89 % 0.0 in
14:47 5.9 °F 4.2 °F 1021.9 in SSW 12.9 mph 27.4 mph 89 % 0.0 in
14:52 6.0 °F 4.3 °F 1021.9 in SSW 16.1 mph 27.4 mph 89 % 0.0 in
14:57 6.1 °F 4.4 °F 1021.9 in South 9.7 mph 25.7 mph 89 % 0.0 in
15:02 6.2 °F 4.5 °F 1021.6 in South 12.9 mph 22.5 mph 89 % 0.0 in
15:22 6.4 °F 4.6 °F 1021.2 in South 8.0 mph 20.9 mph 88 % 0.0 in
15:27 6.4 °F 4.6 °F 1021.2 in SSW 12.9 mph 20.9 mph 88 % 0.0 in
15:32 6.4 °F 4.6 °F 1021.2 in SSW 11.3 mph 20.9 mph 88 % 0.0 in
15:37 6.5 °F 4.5 °F 1021.2 in SSW 9.7 mph 20.9 mph 87 % 0.0 in
15:42 6.6 °F 4.6 °F 1021.2 in SW 12.9 mph 20.9 mph 87 % 0.0 in
15:52 6.6 °F 4.6 °F 1020.9 in SSW 8.0 mph 22.5 mph 87 % 0.0 in
15:57 6.6 °F 4.6 °F 1020.9 in SSW 17.7 mph 22.5 mph 87 % 0.0 in
16:02 6.7 °F 4.7 °F 1020.5 in SW 8.0 mph 22.5 mph 87 % 0.0 in
16:07 6.7 °F 4.7 °F 1020.5 in SSW 9.7 mph 20.9 mph 87 % 0.0 in
16:12 6.7 °F 4.7 °F 1020.5 in SW 8.0 mph 17.7 mph 87 % 0.0 in
16:37 6.7 °F 4.7 °F 1020.2 in SSW 8.0 mph 14.5 mph 87 % 0.0 in
16:42 6.7 °F 4.7 °F 1020.2 in SSW 9.7 mph 14.5 mph 87 % 0.0 in
16:47 6.7 °F 4.7 °F 1020.2 in SSW 12.9 mph 14.5 mph 87 % 0.0 in
16:57 6.8 °F 4.6 °F 1019.9 in SSW 12.9 mph 14.5 mph 86 % 0.0 in
17:07 6.8 °F 4.6 °F 1019.9 in SSW 9.7 mph 16.1 mph 86 % 0.0 in
17:12 6.8 °F 4.6 °F 1019.9 in SSW 12.9 mph 16.1 mph 86 % 0.0 in
17:27 6.8 °F 4.8 °F 1019.5 in SW 12.9 mph 17.7 mph 87 % 0.0 in
17:32 6.8 °F 4.6 °F 1019.5 in SSW 9.7 mph 17.7 mph 86 % 0.0 in
17:47 6.8 °F 4.6 °F 1019.5 in SW 14.5 mph 19.3 mph 86 % 0.0 in
17:52 6.8 °F 4.8 °F 1019.5 in SSW 11.3 mph 19.3 mph 87 % 0.0 in
17:57 6.7 °F 4.7 °F 1019.5 in SSW 11.3 mph 19.3 mph 87 % 0.0 in
18:02 6.6 °F 4.8 °F 1019.2 in SW 9.7 mph 17.7 mph 88 % 0.3 in
18:12 6.4 °F 4.7 °F 1019.2 in SW 9.7 mph 19.3 mph 89 % 0.5 in
18:17 6.4 °F 4.9 °F 1019.2 in SW 8.0 mph 19.3 mph 90 % 0.5 in
18:22 6.4 °F 4.9 °F 1019.2 in SSW 11.3 mph 19.3 mph 90 % 0.5 in
18:32 6.6 °F 4.9 °F 1018.8 in SSW 11.3 mph 19.3 mph 89 % 0.8 in
18:42 6.4 °F 4.9 °F 1018.8 in SSW 6.4 mph 16.1 mph 90 % 1.0 in
18:57 6.4 °F 4.9 °F 1018.8 in SW 16.1 mph 19.3 mph 90 % 1.5 in
19:02 6.4 °F 4.9 °F 1018.5 in SSW 14.5 mph 20.9 mph 90 % 1.3 in
19:17 6.5 °F 4.8 °F 1018.2 in SW 17.7 mph 24.1 mph 89 % 1.5 in
19:22 6.5 °F 4.8 °F 1018.5 in SSW 20.9 mph 27.4 mph 89 % 1.5 in
19:27 6.6 °F 4.9 °F 1018.2 in SSW 12.9 mph 29.0 mph 89 % 1.8 in
19:37 6.7 °F 4.9 °F 1018.2 in SW 22.5 mph 32.2 mph 88 % 2.0 in
19:52 6.5 °F 5.0 °F 1018.2 in SW 27.4 mph 35.4 mph 90 % 2.0 in
19:57 6.4 °F 5.0 °F 1018.2 in SW 19.3 mph 37.0 mph 91 % 2.0 in
20:02 6.4 °F 5.2 °F 1018.2 in SW 19.3 mph 37.0 mph 92 % 2.0 in
20:07 6.3 °F 5.3 °F 1018.2 in WSW 24.1 mph 37.0 mph 93 % 1.8 in
20:17 6.3 °F 5.3 °F 1017.8 in SW 25.7 mph 37.0 mph 93 % 2.3 in
20:22 6.2 °F 5.2 °F 1017.8 in SSW 19.3 mph 37.0 mph 93 % 2.3 in
20:27 6.2 °F 5.3 °F 1017.8 in SW 17.7 mph 32.2 mph 94 % 2.3 in
20:32 6.1 °F 5.2 °F 1017.8 in SW 17.7 mph 32.2 mph 94 % 2.3 in
20:42 6.1 °F 5.4 °F 1017.8 in SSW 24.1 mph 32.2 mph 95 % 2.3 in
20:52 6.1 °F 5.5 °F 1017.8 in SW 22.5 mph 32.2 mph 96 % 2.0 in
21:02 6.1 °F 5.5 °F 1017.8 in SW 19.3 mph 35.4 mph 96 % 2.0 in
21:17 6.2 °F 5.6 °F 1017.5 in WSW 24.1 mph 33.8 mph 96 % 1.8 in
21:22 6.2 °F 5.6 °F 1017.5 in SW 17.7 mph 33.8 mph 96 % 1.5 in
21:37 6.2 °F 5.6 °F 1017.5 in SW 22.5 mph 32.2 mph 96 % 1.5 in
21:47 6.2 °F 5.6 °F 1017.5 in SW 17.7 mph 32.2 mph 96 % 1.8 in
21:52 6.2 °F 5.6 °F 1017.2 in SW 19.3 mph 29.0 mph 96 % 1.5 in
21:57 6.2 °F 5.6 °F 1017.2 in SSW 16.1 mph 29.0 mph 96 % 1.5 in
22:07 6.3 °F 5.9 °F 1017.2 in SW 17.7 mph 30.6 mph 97 % 1.3 in
22:12 6.3 °F 5.9 °F 1017.2 in WSW 27.4 mph 32.2 mph 97 % 1.3 in
22:17 6.3 °F 5.9 °F 1016.8 in WSW 17.7 mph 32.2 mph 97 % 1.0 in
22:22 6.3 °F 5.9 °F 1016.8 in SW 12.9 mph 32.2 mph 97 % 0.8 in
22:32 6.3 °F 5.9 °F 1016.8 in SW 24.1 mph 29.0 mph 97 % 0.5 in
22:42 6.3 °F 5.9 °F 1016.5 in WSW 20.9 mph 30.6 mph 97 % 0.5 in
22:57 6.4 °F 6.0 °F 1016.8 in SW 16.1 mph 30.6 mph 97 % 0.3 in
23:02 6.5 °F 6.1 °F 1016.5 in SW 20.9 mph 30.6 mph 97 % 0.5 in
23:07 6.5 °F 6.1 °F 1016.5 in SW 22.5 mph 30.6 mph 97 % 0.5 in
23:12 6.5 °F 6.1 °F 1016.8 in SW 14.5 mph 27.4 mph 97 % 0.5 in
23:17 6.5 °F 6.1 °F 1016.5 in SW 14.5 mph 29.0 mph 97 % 0.5 in
23:22 6.6 °F 6.2 °F 1016.5 in WSW 19.3 mph 29.0 mph 97 % 0.5 in
23:32 6.6 °F 6.2 °F 1016.8 in SW 6.4 mph 24.1 mph 97 % 0.5 in
23:37 6.7 °F 6.3 °F 1016.8 in WSW 14.5 mph 22.5 mph 97 % 0.3 in
23:42 6.7 °F 6.3 °F 1017.2 in West 6.4 mph 20.9 mph 97 % 0.3 in
23:47 6.8 °F 6.4 °F 1017.2 in SW 4.8 mph 19.3 mph 97 % 0.5 in
23:57 6.9 °F 6.5 °F 1017.2 in WSW 9.7 mph 16.1 mph 97 % 0.5 in
Meteo18
Compliments of Weather Underground - 4 mb

Script developed by  Jim McMurry - jmcmurry@mwt.net Adapted for the template by  Wim van der Kuil - Leuven-Template.eu

You find our weather info also at:

European Weather Network

Weather Underground

Equipment we use:

Weather-station
Davis Vue

Weather-program
Meteobridge

Weather-server
Raspberry PI 2 B+

Provider
1 and 1

Davis Vue

Meteobridge

Raspberry PI 2 B+

1 and 1